Alexandria, Ohio
Current Conditions -  °F | °C
As of 2:54 AM on Thursday 18 Dec 2014 (Local Time) from KVTA Reporting Station
Overcast Overcast  
Wind Chill: 19°   Ceiling: 2300
Heat Index: 28°   Visibility: 10mi
Dew Point: 19°   Wind: 9mph
Humidity: 69%   Direction: 310°NW
Pressure: 30.24"   Gusts: NA
Location:  40.09°N, 82.61°W
Report Text: KVTA 180754Z AUTO 31008KT 10SM OVC023 M02/M07 A3024 RMK AO2 SLP248 T10221072
Loading
Personal Weather Stations






























Interactive Weather Map New forecast layout! Learn more

10-Day Weather Forecast

Advertisements
Track Severe Weather on mobile